THA924 VTBS-EDDM
Flight info
| Callsign | THA924 |
|---|---|
| Flight time | 11h 0m |
| Altitude | 36000 |
| Route | TARED1F TARED P646 JJS B209 KKJ L333 KABEL/N0498F380 L333 MERUN L750 RANAH B449 ETRAP/N0489F400 B449 DUKAN L850 ADEKI N644 TETRO M10 SARPI UM10 GOKPA UL746 ODERO L746 LUGEB DCT BALBI DCT NEPOT DCT DEGET DCT OSLEN DCT PUSTA DCT OGVUN DCT ARSIN DCT SITNI DCT BAGSI DCT MATIG DCT AMADI Q113 NAPSA NAPSA4A |
| Aircraft | A359/H-SDE2E3GHIJ1J4J5M1RWYZ/LB2D1 |
Departure
| Time | 2026-04-30 21:45 |
|---|---|
| Airport | Suvarnabhumi Airport (VTBS) |
Arrival
| Time | 2026-05-01 08:45 |
|---|---|
| Airport | Munich Airport (EDDM) |
| Time | Latitude | Longitude | Altitude | Speed | Heading |
|---|---|---|---|---|---|
| 2026-04-30 21:08 | 13.68067 | 100.75033 | 19 ft | 0 kts | 14° |
| 2026-04-30 21:23 | 13.68066 | 100.75033 | 19 ft | 0 kts | 14° |
| 2026-04-30 21:33 | 13.68047 | 100.75028 | 21 ft | 4 kts | 22° |
| 2026-04-30 21:34 | 13.68028 | 100.75017 | 21 ft | 4 kts | 54° |
| 2026-04-30 21:34 | 13.68014 | 100.75018 | 21 ft | 4 kts | 133° |
| 2026-04-30 21:34 | 13.67993 | 100.75028 | 19 ft | 4 kts | 161° |
| 2026-04-30 21:35 | 13.67967 | 100.75035 | 19 ft | 4 kts | 163° |
| 2026-04-30 21:35 | 13.67981 | 100.75028 | 19 ft | 4 kts | 115° |
| 2026-04-30 21:35 | 13.67972 | 100.75068 | 21 ft | 0 kts | 284° |
| 2026-04-30 21:38 | 13.67974 | 100.75062 | 19 ft | 3 kts | 285° |
| 2026-04-30 21:38 | 13.67981 | 100.75018 | 19 ft | 9 kts | 269° |
| 2026-04-30 21:38 | 13.67939 | 100.74964 | 19 ft | 10 kts | 200° |
| 2026-04-30 21:38 | 13.67868 | 100.74944 | 19 ft | 11 kts | 194° |
| 2026-04-30 21:39 | 13.67823 | 100.74896 | 19 ft | 10 kts | 266° |
| 2026-04-30 21:39 | 13.67835 | 100.74826 | 19 ft | 10 kts | 283° |
| 2026-04-30 21:39 | 13.67853 | 100.74753 | 19 ft | 11 kts | 285° |
| 2026-04-30 21:39 | 13.67872 | 100.74675 | 19 ft | 12 kts | 284° |
| 2026-04-30 21:40 | 13.67892 | 100.74594 | 19 ft | 12 kts | 284° |
| 2026-04-30 21:40 | 13.67914 | 100.74508 | 19 ft | 13 kts | 284° |
| 2026-04-30 21:40 | 13.67937 | 100.74420 | 19 ft | 13 kts | 286° |
| 2026-04-30 21:40 | 13.67961 | 100.74328 | 19 ft | 14 kts | 285° |
| 2026-04-30 21:41 | 13.67986 | 100.74232 | 19 ft | 14 kts | 284° |
| 2026-04-30 21:41 | 13.68011 | 100.74132 | 19 ft | 15 kts | 284° |
| 2026-04-30 21:41 | 13.68036 | 100.74029 | 19 ft | 15 kts | 284° |
| 2026-04-30 21:41 | 13.68047 | 100.73924 | 19 ft | 15 kts | 249° |
| 2026-04-30 21:42 | 13.67962 | 100.73878 | 19 ft | 14 kts | 195° |
| 2026-04-30 21:42 | 13.67863 | 100.73852 | 19 ft | 15 kts | 194° |
| 2026-04-30 21:42 | 13.67761 | 100.73824 | 19 ft | 15 kts | 194° |
| 2026-04-30 21:42 | 13.67657 | 100.73797 | 19 ft | 16 kts | 194° |
| 2026-04-30 21:43 | 13.67551 | 100.73769 | 19 ft | 16 kts | 193° |
| 2026-04-30 21:43 | 13.67442 | 100.73741 | 19 ft | 16 kts | 194° |
| 2026-04-30 21:43 | 13.67332 | 100.73712 | 19 ft | 17 kts | 194° |
| 2026-04-30 21:43 | 13.67220 | 100.73683 | 19 ft | 17 kts | 194° |
| 2026-04-30 21:44 | 13.67112 | 100.73639 | 20 ft | 16 kts | 229° |
| 2026-04-30 21:44 | 13.67119 | 100.73530 | 18 ft | 16 kts | 299° |
| 2026-04-30 21:44 | 13.67210 | 100.73490 | 19 ft | 14 kts | 12° |
| 2026-04-30 21:44 | 13.67360 | 100.73527 | 20 ft | 41 kts | 14° |
| 2026-04-30 21:45 | 13.67828 | 100.73650 | 20 ft | 96 kts | 14° |
| 2026-04-30 21:45 | 13.68634 | 100.73863 | 22 ft | 143 kts | 14° |
| 2026-04-30 21:45 | 13.69681 | 100.74147 | 375 ft | 152 kts | 16° |
| 2026-04-30 21:45 | 13.70701 | 100.74427 | 808 ft | 157 kts | 17° |
| 2026-04-30 21:46 | 13.71834 | 100.74730 | 1045 ft | 175 kts | 15° |
| 2026-04-30 21:46 | 13.73027 | 100.75035 | 1514 ft | 179 kts | 14° |
| 2026-04-30 21:46 | 13.74243 | 100.75347 | 1870 ft | 183 kts | 14° |
| 2026-04-30 21:46 | 13.75487 | 100.75674 | 2150 ft | 185 kts | 14° |
| 2026-04-30 21:47 | 13.76730 | 100.76002 | 2491 ft | 185 kts | 15° |
| 2026-04-30 21:47 | 13.77984 | 100.76331 | 2773 ft | 188 kts | 14° |
| 2026-04-30 21:47 | 13.79254 | 100.76660 | 3100 ft | 189 kts | 15° |
| 2026-04-30 21:47 | 13.80570 | 100.77001 | 3273 ft | 201 kts | 14° |
| 2026-04-30 21:48 | 13.81975 | 100.77328 | 3418 ft | 214 kts | 8° |
| 2026-04-30 21:48 | 13.83497 | 100.77193 | 3535 ft | 229 kts | 339° |
| 2026-04-30 21:48 | 13.84764 | 100.76162 | 3612 ft | 243 kts | 300° |
| 2026-04-30 21:48 | 13.85489 | 100.74584 | 3824 ft | 254 kts | 289° |
| 2026-04-30 21:49 | 13.86143 | 100.72845 | 4066 ft | 267 kts | 290° |
| 2026-04-30 21:49 | 13.86831 | 100.71042 | 4437 ft | 274 kts | 290° |
| 2026-04-30 21:49 | 13.87548 | 100.69206 | 4850 ft | 279 kts | 290° |
| 2026-04-30 21:49 | 13.88284 | 100.67351 | 5310 ft | 281 kts | 291° |
| 2026-04-30 21:50 | 13.89031 | 100.65479 | 5799 ft | 283 kts | 291° |
| 2026-04-30 21:50 | 13.89785 | 100.63597 | 6290 ft | 286 kts | 291° |
| 2026-04-30 21:50 | 13.90544 | 100.61701 | 6755 ft | 288 kts | 291° |
| 2026-04-30 21:50 | 13.91311 | 100.59796 | 7226 ft | 289 kts | 291° |
| 2026-04-30 21:51 | 13.92079 | 100.57879 | 7711 ft | 290 kts | 291° |
| 2026-04-30 21:51 | 13.92851 | 100.55950 | 8196 ft | 292 kts | 291° |
| 2026-04-30 21:51 | 13.93626 | 100.54014 | 8692 ft | 293 kts | 291° |
| 2026-04-30 21:51 | 13.94408 | 100.52068 | 9185 ft | 295 kts | 291° |
| 2026-04-30 21:52 | 13.95187 | 100.50109 | 9673 ft | 297 kts | 291° |
| 2026-04-30 21:52 | 13.95965 | 100.48166 | 10109 ft | 299 kts | 291° |
| 2026-04-30 21:52 | 13.96774 | 100.46155 | 10332 ft | 310 kts | 291° |
| 2026-04-30 21:52 | 13.97613 | 100.44061 | 10518 ft | 322 kts | 291° |
| 2026-04-30 21:53 | 13.98477 | 100.41897 | 10712 ft | 332 kts | 291° |
| 2026-04-30 21:53 | 13.99373 | 100.39664 | 10909 ft | 343 kts | 291° |
| 2026-04-30 21:53 | 14.00296 | 100.37360 | 11103 ft | 353 kts | 291° |
| 2026-04-30 21:53 | 14.01241 | 100.34993 | 11288 ft | 362 kts | 291° |
| 2026-04-30 21:54 | 14.02208 | 100.32566 | 11466 ft | 371 kts | 291° |
| 2026-04-30 21:54 | 14.03200 | 100.30078 | 11683 ft | 379 kts | 291° |
| 2026-04-30 21:54 | 14.04205 | 100.27558 | 11984 ft | 382 kts | 291° |
| 2026-04-30 21:54 | 14.05218 | 100.25018 | 12351 ft | 384 kts | 291° |
| 2026-04-30 21:55 | 14.06238 | 100.22464 | 12723 ft | 386 kts | 291° |
| 2026-04-30 21:55 | 14.07259 | 100.19905 | 13078 ft | 388 kts | 291° |
| 2026-04-30 21:55 | 14.08287 | 100.17325 | 13435 ft | 390 kts | 291° |
| 2026-04-30 21:55 | 14.09317 | 100.14739 | 13779 ft | 391 kts | 291° |
| 2026-04-30 21:56 | 14.10352 | 100.12141 | 14095 ft | 393 kts | 291° |
| 2026-04-30 21:56 | 14.11379 | 100.09562 | 14400 ft | 395 kts | 291° |
| 2026-04-30 21:56 | 14.12423 | 100.06941 | 14724 ft | 396 kts | 291° |
| 2026-04-30 21:56 | 14.13469 | 100.04312 | 15045 ft | 398 kts | 291° |
| 2026-04-30 21:57 | 14.14490 | 100.01745 | 15345 ft | 400 kts | 291° |
| 2026-04-30 21:57 | 14.15545 | 99.99092 | 15671 ft | 401 kts | 291° |
| 2026-04-30 21:57 | 14.16605 | 99.96425 | 15977 ft | 403 kts | 291° |
| 2026-04-30 21:57 | 14.17672 | 99.93743 | 16293 ft | 405 kts | 291° |
| 2026-04-30 21:58 | 14.18930 | 99.91146 | 16602 ft | 407 kts | 300° |
| 2026-04-30 21:58 | 14.20467 | 99.88686 | 16914 ft | 409 kts | 302° |
| 2026-04-30 21:58 | 14.22056 | 99.86248 | 17232 ft | 411 kts | 303° |
| 2026-04-30 21:58 | 14.23652 | 99.83799 | 17536 ft | 412 kts | 302° |
| 2026-04-30 21:59 | 14.25249 | 99.81340 | 17852 ft | 414 kts | 302° |
| 2026-04-30 21:59 | 14.26851 | 99.78867 | 18161 ft | 415 kts | 302° |
| 2026-04-30 21:59 | 14.28454 | 99.76389 | 18432 ft | 417 kts | 302° |
| 2026-04-30 22:00 | 14.31681 | 99.71395 | 18952 ft | 419 kts | 302° |
| 2026-04-30 22:00 | 14.34919 | 99.66377 | 19467 ft | 422 kts | 302° |
| 2026-04-30 22:00 | 14.36545 | 99.63856 | 19720 ft | 423 kts | 302° |
| 2026-04-30 22:01 | 14.38180 | 99.61320 | 19958 ft | 425 kts | 302° |
| 2026-04-30 22:01 | 14.39819 | 99.58777 | 20198 ft | 426 kts | 302° |
| 2026-04-30 22:01 | 14.41432 | 99.56274 | 20434 ft | 428 kts | 302° |
| 2026-04-30 22:01 | 14.43087 | 99.53701 | 20675 ft | 429 kts | 302° |
| 2026-04-30 22:02 | 14.44630 | 99.51067 | 20901 ft | 430 kts | 298° |
| 2026-04-30 22:02 | 14.46068 | 99.48360 | 21128 ft | 431 kts | 296° |
| 2026-04-30 22:02 | 14.47455 | 99.45610 | 21365 ft | 432 kts | 296° |
| 2026-04-30 22:02 | 14.48821 | 99.42844 | 21582 ft | 433 kts | 295° |
| 2026-04-30 22:03 | 14.50188 | 99.40070 | 21813 ft | 435 kts | 295° |
| 2026-04-30 22:03 | 14.51567 | 99.37287 | 22016 ft | 437 kts | 296° |
| 2026-04-30 22:03 | 14.52961 | 99.34493 | 22226 ft | 438 kts | 296° |
| 2026-04-30 22:03 | 14.54363 | 99.31698 | 22440 ft | 439 kts | 296° |
| 2026-04-30 22:04 | 14.55774 | 99.28892 | 22634 ft | 441 kts | 296° |
| 2026-04-30 22:04 | 14.57189 | 99.26078 | 22873 ft | 442 kts | 296° |
| 2026-04-30 22:04 | 14.60034 | 99.20436 | 23287 ft | 445 kts | 296° |
| 2026-04-30 22:05 | 14.61466 | 99.17596 | 23498 ft | 446 kts | 296° |
| 2026-04-30 22:05 | 14.62899 | 99.14749 | 23671 ft | 447 kts | 296° |
| 2026-04-30 22:05 | 14.64315 | 99.11936 | 23874 ft | 447 kts | 296° |
| 2026-04-30 22:05 | 14.65766 | 99.09051 | 24086 ft | 448 kts | 296° |
| 2026-04-30 22:06 | 14.67204 | 99.06188 | 24260 ft | 448 kts | 296° |
| 2026-04-30 22:06 | 14.70058 | 99.00505 | 24634 ft | 449 kts | 296° |
| 2026-04-30 22:06 | 14.71498 | 98.97637 | 24831 ft | 450 kts | 296° |
| 2026-04-30 22:07 | 14.72937 | 98.94769 | 24995 ft | 451 kts | 296° |
| 2026-04-30 22:07 | 14.74383 | 98.91885 | 25173 ft | 452 kts | 296° |
| 2026-04-30 22:07 | 14.75827 | 98.89006 | 25385 ft | 451 kts | 296° |
| 2026-04-30 22:07 | 14.77272 | 98.86122 | 25562 ft | 452 kts | 296° |
| 2026-04-30 22:08 | 14.78715 | 98.83239 | 25735 ft | 453 kts | 296° |
| 2026-04-30 22:08 | 14.80160 | 98.80353 | 25911 ft | 454 kts | 296° |
| 2026-04-30 22:08 | 14.81617 | 98.77443 | 26080 ft | 455 kts | 296° |
| 2026-04-30 22:08 | 14.83070 | 98.74541 | 26263 ft | 455 kts | 296° |
| 2026-04-30 22:09 | 14.84523 | 98.71636 | 26460 ft | 456 kts | 296° |
| 2026-04-30 22:09 | 14.85980 | 98.68723 | 26625 ft | 457 kts | 296° |
| 2026-04-30 22:09 | 14.87441 | 98.65799 | 26785 ft | 458 kts | 296° |
| 2026-04-30 22:09 | 14.88882 | 98.62915 | 26974 ft | 458 kts | 296° |
| 2026-04-30 22:10 | 14.90346 | 98.59982 | 27133 ft | 459 kts | 296° |
| 2026-04-30 22:10 | 14.91811 | 98.57047 | 27306 ft | 460 kts | 296° |
| 2026-04-30 22:10 | 14.93279 | 98.54105 | 27484 ft | 461 kts | 296° |
| 2026-04-30 22:10 | 14.94749 | 98.51159 | 27662 ft | 462 kts | 296° |
| 2026-04-30 22:11 | 14.97699 | 98.45243 | 28004 ft | 463 kts | 296° |
| 2026-04-30 22:11 | 14.99176 | 98.42278 | 28179 ft | 464 kts | 296° |
| 2026-04-30 22:11 | 15.00652 | 98.39314 | 28368 ft | 465 kts | 296° |
| 2026-04-30 22:12 | 15.02134 | 98.36338 | 28521 ft | 466 kts | 295° |
| 2026-04-30 22:12 | 15.03619 | 98.33354 | 28693 ft | 467 kts | 295° |
| 2026-04-30 22:12 | 15.05105 | 98.30368 | 28858 ft | 467 kts | 295° |
| 2026-04-30 22:12 | 15.06589 | 98.27383 | 29018 ft | 467 kts | 295° |
| 2026-04-30 22:13 | 15.08078 | 98.24389 | 29154 ft | 469 kts | 295° |
| 2026-04-30 22:13 | 15.09554 | 98.21418 | 29274 ft | 470 kts | 295° |
| 2026-04-30 22:13 | 15.11049 | 98.18406 | 29412 ft | 471 kts | 295° |
| 2026-04-30 22:13 | 15.12528 | 98.15384 | 29602 ft | 471 kts | 295° |
| 2026-04-30 22:14 | 15.13995 | 98.12354 | 29778 ft | 472 kts | 295° |
| 2026-04-30 22:14 | 15.15462 | 98.09315 | 29912 ft | 472 kts | 295° |
| 2026-04-30 22:14 | 15.16934 | 98.06265 | 30040 ft | 473 kts | 295° |
| 2026-04-30 22:14 | 15.18407 | 98.03219 | 30153 ft | 474 kts | 295° |
| 2026-04-30 22:15 | 15.19885 | 98.00166 | 30271 ft | 475 kts | 295° |
| 2026-04-30 22:15 | 15.21364 | 97.97112 | 30379 ft | 476 kts | 295° |
| 2026-04-30 22:15 | 15.22852 | 97.94044 | 30491 ft | 476 kts | 295° |
| 2026-04-30 22:15 | 15.24340 | 97.90976 | 30600 ft | 477 kts | 295° |
| 2026-04-30 22:16 | 15.25829 | 97.87903 | 30709 ft | 478 kts | 295° |
| 2026-04-30 22:16 | 15.27325 | 97.84815 | 30824 ft | 479 kts | 295° |
| 2026-04-30 22:17 | 15.31794 | 97.75582 | 31320 ft | 478 kts | 295° |
| 2026-04-30 22:17 | 15.33283 | 97.72502 | 31471 ft | 478 kts | 294° |
| 2026-04-30 22:17 | 15.36233 | 97.66398 | 31824 ft | 477 kts | 294° |
| 2026-04-30 22:18 | 15.37717 | 97.63325 | 31978 ft | 476 kts | 294° |
| 2026-04-30 22:18 | 15.40679 | 97.57184 | 32298 ft | 476 kts | 294° |
| 2026-04-30 22:19 | 15.43634 | 97.51055 | 32625 ft | 475 kts | 294° |
| 2026-04-30 22:19 | 15.45113 | 97.47999 | 32806 ft | 475 kts | 294° |
| 2026-04-30 22:19 | 15.48186 | 97.41935 | 33139 ft | 475 kts | 295° |
| 2026-04-30 22:20 | 15.49742 | 97.38922 | 33302 ft | 475 kts | 295° |
| 2026-04-30 22:20 | 15.52850 | 97.32887 | 33665 ft | 474 kts | 295° |
| 2026-04-30 22:20 | 15.54393 | 97.29872 | 33843 ft | 473 kts | 295° |
| 2026-04-30 22:21 | 15.55913 | 97.26894 | 33995 ft | 473 kts | 295° |
| 2026-04-30 22:21 | 15.57465 | 97.23845 | 34186 ft | 472 kts | 295° |
| 2026-04-30 22:21 | 15.58975 | 97.20875 | 34357 ft | 471 kts | 295° |
| 2026-04-30 22:21 | 15.60500 | 97.17875 | 34549 ft | 470 kts | 295° |
| 2026-04-30 22:22 | 15.62021 | 97.14881 | 34731 ft | 469 kts | 295° |
| 2026-04-30 22:22 | 15.63538 | 97.11893 | 34904 ft | 468 kts | 295° |
| 2026-04-30 22:22 | 15.65051 | 97.08912 | 35074 ft | 467 kts | 295° |
| 2026-04-30 22:22 | 15.66565 | 97.05928 | 35237 ft | 466 kts | 295° |
| 2026-04-30 22:23 | 15.68074 | 97.02954 | 35415 ft | 465 kts | 295° |
| 2026-04-30 22:23 | 15.69578 | 96.99988 | 35584 ft | 464 kts | 295° |
| 2026-04-30 22:23 | 15.71081 | 96.97023 | 35768 ft | 464 kts | 295° |
| 2026-04-30 22:23 | 15.72583 | 96.94059 | 35838 ft | 466 kts | 295° |
| 2026-04-30 22:24 | 15.75614 | 96.88069 | 35847 ft | 470 kts | 295° |
| 2026-04-30 22:24 | 15.78647 | 96.82076 | 35845 ft | 469 kts | 295° |
| 2026-04-30 22:25 | 15.81658 | 96.76122 | 35847 ft | 469 kts | 295° |
| 2026-04-30 22:25 | 15.84686 | 96.70127 | 35848 ft | 468 kts | 294° |
| 2026-04-30 22:26 | 15.89218 | 96.61147 | 35845 ft | 468 kts | 294° |
| 2026-04-30 22:27 | 15.92235 | 96.55161 | 35848 ft | 467 kts | 294° |
| 2026-04-30 22:27 | 15.96750 | 96.46193 | 35843 ft | 467 kts | 294° |
| 2026-04-30 22:28 | 16.01256 | 96.37232 | 35849 ft | 466 kts | 294° |
| 2026-04-30 22:29 | 16.07233 | 96.25329 | 35846 ft | 466 kts | 294° |
| 2026-04-30 22:31 | 16.17695 | 96.04445 | 35850 ft | 465 kts | 294° |
| 2026-04-30 22:32 | 16.25145 | 95.89535 | 35854 ft | 464 kts | 294° |
| 2026-04-30 22:33 | 16.32555 | 95.74673 | 35861 ft | 463 kts | 294° |
| 2026-04-30 22:35 | 16.39957 | 95.59795 | 35861 ft | 463 kts | 294° |
| 2026-04-30 22:36 | 16.47338 | 95.44927 | 35861 ft | 462 kts | 294° |
| 2026-04-30 22:37 | 16.53231 | 95.33033 | 35865 ft | 462 kts | 294° |
| 2026-04-30 22:38 | 16.59113 | 95.21141 | 35864 ft | 461 kts | 294° |
| 2026-04-30 22:39 | 16.63020 | 95.13230 | 35863 ft | 461 kts | 294° |
| 2026-04-30 22:40 | 16.71816 | 94.95385 | 35863 ft | 461 kts | 294° |
| 2026-04-30 22:41 | 16.79121 | 94.80531 | 35861 ft | 461 kts | 294° |
| 2026-04-30 22:42 | 16.86586 | 94.69531 | 35861 ft | 468 kts | 305° |
| 2026-04-30 22:43 | 16.90697 | 94.64267 | 35860 ft | 468 kts | 305° |
| 2026-04-30 22:44 | 16.98915 | 94.53719 | 35847 ft | 468 kts | 305° |
| 2026-04-30 22:45 | 17.11174 | 94.37875 | 35852 ft | 468 kts | 305° |
| 2026-04-30 22:47 | 17.23462 | 94.21961 | 35855 ft | 469 kts | 305° |
| 2026-04-30 22:48 | 17.31651 | 94.11335 | 35850 ft | 469 kts | 305° |
| 2026-04-30 22:49 | 17.43891 | 93.95420 | 35849 ft | 469 kts | 305° |
| 2026-04-30 22:51 | 17.56141 | 93.79454 | 35848 ft | 469 kts | 305° |
| 2026-04-30 22:52 | 17.62327 | 93.71374 | 35848 ft | 475 kts | 305° |
| 2026-04-30 22:53 | 17.70580 | 93.60586 | 35842 ft | 474 kts | 306° |
| 2026-04-30 22:53 | 17.76740 | 93.52521 | 35837 ft | 474 kts | 306° |
| 2026-04-30 22:55 | 17.87054 | 93.38993 | 35840 ft | 475 kts | 306° |
| 2026-04-30 22:56 | 17.95309 | 93.28145 | 35839 ft | 476 kts | 306° |
| 2026-04-30 22:57 | 18.05618 | 93.14573 | 35844 ft | 477 kts | 307° |
| 2026-04-30 22:58 | 18.13892 | 93.03660 | 35844 ft | 477 kts | 307° |
| 2026-04-30 22:59 | 18.26294 | 92.87267 | 35840 ft | 477 kts | 307° |
| 2026-05-01 07:23 | 45.20962 | 24.85330 | 40308 ft | 481 kts | 298° |
| 2026-05-01 07:24 | 45.25573 | 24.72738 | 40311 ft | 482 kts | 298° |
| 2026-05-01 07:24 | 45.28649 | 24.64309 | 40310 ft | 482 kts | 298° |
| 2026-05-01 07:25 | 45.31729 | 24.55842 | 40310 ft | 482 kts | 298° |
| 2026-05-01 07:25 | 45.34799 | 24.47376 | 40304 ft | 482 kts | 298° |
| 2026-05-01 07:26 | 45.37868 | 24.38886 | 40311 ft | 482 kts | 298° |
| 2026-05-01 07:26 | 45.40927 | 24.30396 | 40307 ft | 482 kts | 298° |
| 2026-05-01 07:27 | 45.43983 | 24.21889 | 40305 ft | 483 kts | 298° |
| 2026-05-01 07:27 | 45.47035 | 24.13365 | 40306 ft | 484 kts | 298° |
| 2026-05-01 07:28 | 45.50088 | 24.04814 | 40312 ft | 484 kts | 298° |
| 2026-05-01 07:28 | 45.53131 | 23.96262 | 40313 ft | 483 kts | 298° |
| 2026-05-01 07:29 | 45.56167 | 23.87700 | 40309 ft | 484 kts | 298° |
| 2026-05-01 07:29 | 45.59178 | 23.79185 | 40316 ft | 484 kts | 298° |
| 2026-05-01 07:30 | 45.62204 | 23.70601 | 40307 ft | 484 kts | 298° |
| 2026-05-01 07:30 | 45.65228 | 23.61994 | 40310 ft | 485 kts | 298° |
| 2026-05-01 07:31 | 45.68246 | 23.53376 | 40306 ft | 485 kts | 298° |
| 2026-05-01 07:32 | 45.75783 | 23.31729 | 40298 ft | 487 kts | 298° |
| 2026-05-01 07:33 | 45.80270 | 23.18757 | 40308 ft | 487 kts | 298° |
| 2026-05-01 07:33 | 45.84766 | 23.05697 | 40316 ft | 487 kts | 298° |
| 2026-05-01 07:34 | 45.89250 | 22.92606 | 40311 ft | 488 kts | 298° |
| 2026-05-01 07:35 | 45.92235 | 22.83858 | 40312 ft | 488 kts | 298° |
| 2026-05-01 07:35 | 45.95212 | 22.75102 | 40314 ft | 488 kts | 298° |
| 2026-05-01 07:36 | 45.98164 | 22.66391 | 40313 ft | 488 kts | 298° |
| 2026-05-01 07:36 | 46.01152 | 22.57546 | 40317 ft | 488 kts | 298° |
| 2026-05-01 07:37 | 46.05570 | 22.44408 | 40318 ft | 489 kts | 298° |
| 2026-05-01 07:37 | 46.08523 | 22.35595 | 40321 ft | 489 kts | 298° |
| 2026-05-01 07:38 | 46.11475 | 22.26754 | 40320 ft | 489 kts | 298° |
| 2026-05-01 07:39 | 46.15890 | 22.13473 | 40324 ft | 490 kts | 298° |
| 2026-05-01 07:39 | 46.20289 | 22.00171 | 40329 ft | 490 kts | 298° |
| 2026-05-01 07:40 | 46.23214 | 21.91286 | 40327 ft | 490 kts | 298° |
| 2026-05-01 07:40 | 46.26134 | 21.82392 | 40334 ft | 490 kts | 298° |
| 2026-05-01 07:41 | 46.29029 | 21.73541 | 40332 ft | 490 kts | 298° |
| 2026-05-01 07:42 | 46.33381 | 21.60174 | 40339 ft | 490 kts | 298° |
| 2026-05-01 07:42 | 46.36267 | 21.51274 | 40343 ft | 490 kts | 298° |
| 2026-05-01 07:43 | 46.39166 | 21.42303 | 40340 ft | 490 kts | 298° |
| 2026-05-01 07:43 | 46.43488 | 21.28870 | 40346 ft | 490 kts | 298° |
| 2026-05-01 07:44 | 46.49227 | 21.10924 | 40346 ft | 491 kts | 298° |
| 2026-05-01 07:45 | 46.52090 | 21.01925 | 40346 ft | 491 kts | 298° |
| 2026-05-01 07:45 | 46.54946 | 20.92914 | 40349 ft | 491 kts | 298° |
| 2026-05-01 07:46 | 46.57776 | 20.83955 | 40347 ft | 491 kts | 298° |
| 2026-05-01 07:47 | 46.62038 | 20.70402 | 40350 ft | 492 kts | 298° |
| 2026-05-01 07:47 | 46.64874 | 20.61345 | 40347 ft | 492 kts | 298° |
| 2026-05-01 07:48 | 46.69119 | 20.47726 | 40351 ft | 492 kts | 298° |
| 2026-05-01 07:48 | 46.71940 | 20.38636 | 40351 ft | 493 kts | 298° |
| 2026-05-01 07:49 | 46.75919 | 20.24801 | 40353 ft | 495 kts | 294° |
| 2026-05-01 07:50 | 46.78368 | 20.15416 | 40360 ft | 495 kts | 294° |
| 2026-05-01 07:50 | 46.82071 | 20.01423 | 40367 ft | 495 kts | 295° |
| 2026-05-01 07:51 | 46.84577 | 19.92048 | 40369 ft | 495 kts | 295° |
| 2026-05-01 07:52 | 46.88324 | 19.77978 | 40371 ft | 495 kts | 295° |
| 2026-05-01 07:52 | 46.90811 | 19.68584 | 40371 ft | 495 kts | 295° |
| 2026-05-01 07:53 | 46.94526 | 19.54475 | 40371 ft | 496 kts | 295° |
| 2026-05-01 07:53 | 46.96996 | 19.45051 | 40369 ft | 496 kts | 295° |
| 2026-05-01 07:55 | 47.03119 | 19.21511 | 40376 ft | 496 kts | 295° |
| 2026-05-01 07:56 | 47.09208 | 18.97865 | 40378 ft | 496 kts | 295° |
| 2026-05-01 07:57 | 47.12840 | 18.83645 | 40381 ft | 496 kts | 294° |
| 2026-05-01 07:58 | 47.17727 | 18.64690 | 40384 ft | 496 kts | 296° |
| 2026-05-01 07:59 | 47.22771 | 18.45868 | 40385 ft | 496 kts | 295° |
| 2026-05-01 08:00 | 47.30242 | 18.17441 | 40385 ft | 497 kts | 295° |
| 2026-05-01 08:01 | 47.35183 | 17.98439 | 40387 ft | 496 kts | 295° |
| 2026-05-01 08:02 | 47.38707 | 17.84063 | 40402 ft | 500 kts | 290° |
| 2026-05-01 08:03 | 47.41328 | 17.69147 | 40407 ft | 501 kts | 288° |
| 2026-05-01 08:03 | 47.43824 | 17.54172 | 40399 ft | 500 kts | 288° |
| 2026-05-01 08:04 | 47.47132 | 17.34283 | 40397 ft | 500 kts | 288° |
| 2026-05-01 08:05 | 47.49601 | 17.19325 | 40396 ft | 499 kts | 288° |
| 2026-05-01 08:06 | 47.52048 | 17.04365 | 40400 ft | 499 kts | 288° |
| 2026-05-01 08:07 | 47.55277 | 16.84416 | 40404 ft | 498 kts | 288° |
| 2026-05-01 08:08 | 47.58210 | 16.69775 | 40403 ft | 491 kts | 295° |
| 2026-05-01 08:09 | 47.63144 | 16.50928 | 40401 ft | 490 kts | 296° |
| 2026-05-01 08:09 | 47.65620 | 16.41505 | 40399 ft | 490 kts | 296° |
| 2026-05-01 08:10 | 47.70506 | 16.22704 | 40401 ft | 490 kts | 296° |
| 2026-05-01 08:11 | 47.74959 | 16.05414 | 40402 ft | 489 kts | 296° |
| 2026-05-01 08:12 | 47.78584 | 15.91246 | 40405 ft | 489 kts | 296° |
| 2026-05-01 08:13 | 47.82194 | 15.77055 | 40410 ft | 489 kts | 296° |
| 2026-05-01 08:13 | 47.85787 | 15.62838 | 40416 ft | 489 kts | 295° |
| 2026-05-01 08:14 | 47.88170 | 15.53363 | 40415 ft | 489 kts | 295° |
| 2026-05-01 08:14 | 47.90548 | 15.43862 | 40416 ft | 490 kts | 295° |
| 2026-05-01 08:15 | 47.94101 | 15.29588 | 40411 ft | 490 kts | 295° |
| 2026-05-01 08:16 | 47.96450 | 15.20103 | 40414 ft | 491 kts | 295° |
| 2026-05-01 08:16 | 47.98806 | 15.10545 | 40417 ft | 491 kts | 295° |
| 2026-05-01 08:17 | 48.01158 | 15.00967 | 40412 ft | 491 kts | 295° |
| 2026-05-01 08:17 | 48.03503 | 14.91375 | 40425 ft | 492 kts | 295° |
| 2026-05-01 08:18 | 48.05265 | 14.81455 | 40415 ft | 501 kts | 281° |
| 2026-05-01 08:19 | 48.05675 | 14.60478 | 40302 ft | 506 kts | 274° |
| 2026-05-01 08:19 | 48.05683 | 14.55234 | 40032 ft | 501 kts | 275° |
| 2026-05-01 08:19 | 48.05692 | 14.50060 | 39644 ft | 497 kts | 275° |
| 2026-05-01 08:19 | 48.05708 | 14.44941 | 38966 ft | 501 kts | 275° |
| 2026-05-01 08:20 | 48.05733 | 14.39737 | 38223 ft | 502 kts | 276° |
| 2026-05-01 08:20 | 48.05758 | 14.34507 | 37553 ft | 503 kts | 276° |
| 2026-05-01 08:20 | 48.05782 | 14.29275 | 36910 ft | 503 kts | 276° |
| 2026-05-01 08:20 | 48.05808 | 14.24054 | 36242 ft | 503 kts | 276° |
| 2026-05-01 08:21 | 48.05831 | 14.18821 | 35541 ft | 505 kts | 276° |
| 2026-05-01 08:21 | 48.05848 | 14.13542 | 34767 ft | 508 kts | 276° |
| 2026-05-01 08:21 | 48.05863 | 14.08240 | 33907 ft | 512 kts | 276° |
| 2026-05-01 08:21 | 48.05878 | 14.02905 | 33058 ft | 514 kts | 275° |
| 2026-05-01 08:22 | 48.05888 | 13.97566 | 32335 ft | 513 kts | 275° |
| 2026-05-01 08:22 | 48.05894 | 13.92273 | 31763 ft | 509 kts | 275° |
| 2026-05-01 08:22 | 48.05897 | 13.87000 | 31165 ft | 505 kts | 275° |
| 2026-05-01 08:22 | 48.05897 | 13.81759 | 30575 ft | 502 kts | 275° |
| 2026-05-01 08:23 | 48.05895 | 13.76568 | 29922 ft | 499 kts | 274° |
| 2026-05-01 08:23 | 48.05891 | 13.71402 | 29317 ft | 494 kts | 274° |
| 2026-05-01 08:23 | 48.05884 | 13.66291 | 28741 ft | 490 kts | 274° |
| 2026-05-01 08:23 | 48.05876 | 13.61214 | 28145 ft | 486 kts | 274° |
| 2026-05-01 08:24 | 48.05865 | 13.56186 | 27590 ft | 482 kts | 274° |
| 2026-05-01 08:24 | 48.05873 | 13.51210 | 27035 ft | 477 kts | 276° |
| 2026-05-01 08:24 | 48.06044 | 13.46358 | 26497 ft | 471 kts | 279° |
| 2026-05-01 08:24 | 48.06334 | 13.41512 | 25940 ft | 466 kts | 280° |
| 2026-05-01 08:25 | 48.06660 | 13.36710 | 25390 ft | 463 kts | 280° |
| 2026-05-01 08:25 | 48.06982 | 13.31934 | 24839 ft | 460 kts | 280° |
| 2026-05-01 08:25 | 48.07280 | 13.27180 | 24283 ft | 458 kts | 279° |
| 2026-05-01 08:25 | 48.07556 | 13.22445 | 23655 ft | 456 kts | 279° |
| 2026-05-01 08:26 | 48.07814 | 13.17733 | 23077 ft | 452 kts | 278° |
| 2026-05-01 08:26 | 48.08056 | 13.13080 | 22522 ft | 447 kts | 278° |
| 2026-05-01 08:26 | 48.08289 | 13.08473 | 21961 ft | 443 kts | 278° |
| 2026-05-01 08:26 | 48.08519 | 13.03886 | 21397 ft | 440 kts | 278° |
| 2026-05-01 08:27 | 48.08744 | 12.99348 | 20853 ft | 437 kts | 277° |
| 2026-05-01 08:27 | 48.08968 | 12.94829 | 20287 ft | 434 kts | 277° |
| 2026-05-01 08:27 | 48.09191 | 12.90346 | 19724 ft | 430 kts | 277° |
| 2026-05-01 08:27 | 48.09542 | 12.85936 | 19180 ft | 426 kts | 282° |
| 2026-05-01 08:28 | 48.09992 | 12.81578 | 18609 ft | 423 kts | 282° |
| 2026-05-01 08:28 | 48.10435 | 12.77236 | 17994 ft | 420 kts | 281° |
| 2026-05-01 08:28 | 48.10854 | 12.73003 | 17433 ft | 416 kts | 281° |
| 2026-05-01 08:28 | 48.11249 | 12.68903 | 16911 ft | 412 kts | 281° |
| 2026-05-01 08:29 | 48.11632 | 12.64867 | 16380 ft | 408 kts | 281° |
| 2026-05-01 08:29 | 48.12026 | 12.60662 | 15827 ft | 404 kts | 280° |
| 2026-05-01 08:29 | 48.12414 | 12.56503 | 15279 ft | 401 kts | 280° |
| 2026-05-01 08:29 | 48.12791 | 12.52400 | 14740 ft | 397 kts | 280° |
| 2026-05-01 08:30 | 48.13163 | 12.48360 | 14524 ft | 384 kts | 280° |
| 2026-05-01 08:30 | 48.13517 | 12.44471 | 14394 ft | 370 kts | 280° |
| 2026-05-01 08:30 | 48.13858 | 12.40713 | 14089 ft | 362 kts | 280° |
| 2026-05-01 08:30 | 48.14196 | 12.36983 | 13607 ft | 359 kts | 280° |
| 2026-05-01 08:31 | 48.14530 | 12.33306 | 13237 ft | 353 kts | 280° |
| 2026-05-01 08:31 | 48.14808 | 12.29657 | 13011 ft | 353 kts | 277° |
| 2026-05-01 08:31 | 48.15048 | 12.25996 | 12691 ft | 354 kts | 277° |
| 2026-05-01 08:31 | 48.15292 | 12.22339 | 12214 ft | 352 kts | 277° |
| 2026-05-01 08:32 | 48.15537 | 12.18722 | 11792 ft | 348 kts | 277° |
| 2026-05-01 08:32 | 48.15784 | 12.15129 | 11331 ft | 345 kts | 277° |
| 2026-05-01 08:32 | 48.16030 | 12.11564 | 10887 ft | 343 kts | 277° |
| 2026-05-01 08:32 | 48.16271 | 12.08029 | 10481 ft | 341 kts | 277° |
| 2026-05-01 08:33 | 48.16507 | 12.04514 | 10144 ft | 335 kts | 277° |
| 2026-05-01 08:33 | 48.16738 | 12.01099 | 10007 ft | 325 kts | 277° |
| 2026-05-01 08:33 | 48.16962 | 11.97784 | 9864 ft | 312 kts | 276° |
| 2026-05-01 08:33 | 48.17132 | 11.94583 | 9606 ft | 306 kts | 275° |
| 2026-05-01 08:34 | 48.17256 | 11.91416 | 9255 ft | 305 kts | 274° |
| 2026-05-01 08:34 | 48.17382 | 11.88267 | 8948 ft | 301 kts | 274° |
| 2026-05-01 08:34 | 48.17507 | 11.85147 | 8610 ft | 299 kts | 274° |
| 2026-05-01 08:34 | 48.17639 | 11.82034 | 8234 ft | 298 kts | 274° |
| 2026-05-01 08:35 | 48.17772 | 11.78945 | 7899 ft | 296 kts | 274° |
| 2026-05-01 08:35 | 48.17909 | 11.75874 | 7563 ft | 295 kts | 274° |
| 2026-05-01 08:35 | 48.18046 | 11.72854 | 7240 ft | 294 kts | 274° |
| 2026-05-01 08:35 | 48.18197 | 11.69815 | 6889 ft | 292 kts | 276° |
| 2026-05-01 08:36 | 48.18543 | 11.66815 | 6533 ft | 291 kts | 283° |
| 2026-05-01 08:36 | 48.19005 | 11.63874 | 6205 ft | 289 kts | 284° |
| 2026-05-01 08:36 | 48.19476 | 11.60956 | 5952 ft | 286 kts | 284° |
| 2026-05-01 08:36 | 48.19947 | 11.58083 | 5689 ft | 281 kts | 284° |
| 2026-05-01 08:37 | 48.20408 | 11.55287 | 5497 ft | 273 kts | 284° |
| 2026-05-01 08:37 | 48.20863 | 11.52558 | 5335 ft | 266 kts | 284° |
| 2026-05-01 08:37 | 48.21314 | 11.49879 | 5207 ft | 264 kts | 284° |
| 2026-05-01 08:37 | 48.21766 | 11.47219 | 5087 ft | 264 kts | 284° |
| 2026-05-01 08:38 | 48.22219 | 11.44542 | 4946 ft | 264 kts | 285° |
| 2026-05-01 08:38 | 48.22720 | 11.41895 | 4838 ft | 265 kts | 291° |
| 2026-05-01 08:38 | 48.23733 | 11.39662 | 4682 ft | 256 kts | 321° |
| 2026-05-01 08:38 | 48.25243 | 11.38427 | 4555 ft | 241 kts | 347° |
| 2026-05-01 08:39 | 48.26853 | 11.37878 | 4425 ft | 235 kts | 354° |
| 2026-05-01 08:39 | 48.28434 | 11.37425 | 4274 ft | 232 kts | 353° |
| 2026-05-01 08:39 | 48.30015 | 11.36999 | 4153 ft | 229 kts | 358° |
| 2026-05-01 08:39 | 48.31531 | 11.37351 | 4028 ft | 216 kts | 32° |
| 2026-05-01 08:40 | 48.32447 | 11.40950 | 3978 ft | 198 kts | 107° |
| 2026-05-01 08:40 | 48.32151 | 11.42989 | 3952 ft | 200 kts | 99° |
| 2026-05-01 08:40 | 48.31991 | 11.45064 | 3963 ft | 199 kts | 94° |
| 2026-05-01 08:41 | 48.31983 | 11.47142 | 3981 ft | 200 kts | 89° |
| 2026-05-01 08:41 | 48.32078 | 11.49231 | 3969 ft | 200 kts | 87° |
| 2026-05-01 08:41 | 48.32221 | 11.51305 | 3955 ft | 196 kts | 85° |
| 2026-05-01 08:41 | 48.32368 | 11.53292 | 3987 ft | 191 kts | 86° |
| 2026-05-01 08:42 | 48.32522 | 11.55278 | 3971 ft | 190 kts | 85° |
| 2026-05-01 08:42 | 48.32681 | 11.57252 | 3970 ft | 192 kts | 85° |
| 2026-05-01 08:42 | 48.32842 | 11.59243 | 3748 ft | 193 kts | 85° |
| 2026-05-01 08:42 | 48.33001 | 11.61240 | 3455 ft | 193 kts | 84° |
| 2026-05-01 08:43 | 48.33155 | 11.63237 | 3143 ft | 191 kts | 86° |
| 2026-05-01 08:43 | 48.33298 | 11.65201 | 2893 ft | 187 kts | 84° |
| 2026-05-01 08:43 | 48.33449 | 11.67116 | 2641 ft | 181 kts | 84° |
| 2026-05-01 08:43 | 48.33585 | 11.68909 | 2366 ft | 165 kts | 84° |
| 2026-05-01 08:44 | 48.33718 | 11.70547 | 2188 ft | 150 kts | 85° |
| 2026-05-01 08:44 | 48.33836 | 11.72030 | 1977 ft | 137 kts | 85° |
| 2026-05-01 08:44 | 48.33935 | 11.73407 | 1792 ft | 129 kts | 85° |
| 2026-05-01 08:44 | 48.34037 | 11.74705 | 1583 ft | 123 kts | 85° |
| 2026-05-01 08:45 | 48.34129 | 11.75899 | 1490 ft | 113 kts | 86° |
| 2026-05-01 08:45 | 48.34206 | 11.76909 | 1483 ft | 84 kts | 83° |
| 2026-05-01 08:45 | 48.34264 | 11.77668 | 1477 ft | 64 kts | 83° |
| 2026-05-01 08:45 | 48.34308 | 11.78225 | 1478 ft | 43 kts | 83° |
| 2026-05-01 08:46 | 48.34338 | 11.78596 | 1478 ft | 32 kts | 81° |
| 2026-05-01 08:46 | 48.34360 | 11.78910 | 1482 ft | 28 kts | 83° |
| 2026-05-01 08:46 | 48.34435 | 11.79159 | 1476 ft | 26 kts | 53° |
| 2026-05-01 08:46 | 48.34543 | 11.79377 | 1479 ft | 26 kts | 53° |
| 2026-05-01 08:47 | 48.34650 | 11.79594 | 1476 ft | 26 kts | 53° |
| 2026-05-01 08:47 | 48.34797 | 11.79704 | 1485 ft | 25 kts | 353° |
| 2026-05-01 08:47 | 48.34886 | 11.79688 | 1482 ft | 0 kts | 353° |
| 2026-05-01 08:48 | 48.34900 | 11.79685 | 1479 ft | 7 kts | 353° |
| 2026-05-01 08:48 | 48.34977 | 11.79648 | 1478 ft | 17 kts | 323° |
| 2026-05-01 08:49 | 48.35091 | 11.79519 | 1478 ft | 22 kts | 343° |
| 2026-05-01 08:49 | 48.35248 | 11.79488 | 1478 ft | 24 kts | 354° |
| 2026-05-01 08:49 | 48.35419 | 11.79459 | 1483 ft | 26 kts | 353° |
| 2026-05-01 08:49 | 48.35580 | 11.79433 | 1479 ft | 19 kts | 356° |
| 2026-05-01 08:50 | 48.35595 | 11.79427 | 1485 ft | 1 kts | 334° |
| 2026-05-01 08:50 | 48.35602 | 11.79394 | 1487 ft | 5 kts | 275° |
| 2026-05-01 08:50 | 48.35598 | 11.79321 | 1482 ft | 8 kts | 265° |
| 2026-05-01 08:50 | 48.35596 | 11.79301 | 1488 ft | 0 kts | 264° |
| 2026-05-01 08:51 | 48.35596 | 11.79297 | 1488 ft | 2 kts | 264° |
| 2026-05-01 08:51 | 48.35595 | 11.79287 | 1486 ft | 0 kts | 264° |
| 2026-05-01 08:53 | 48.35595 | 11.79288 | 1492 ft | 0 kts | 264° |